Time;durP1;ratioP1;P1;durP2;ratioP2;P2;SDS_P1;SDS_P2;PMS_P1;PMS_P2;Temp;Humidity;BMP_temperature;BMP_pressure;BME280_temperature;BME280_humidity;BME280_pressure;Samples;Min_cycle;Max_cycle;Signal;HPM_P1;HPM_P2
2022/08/08 00:02:23;;;;;;;10.45;7.82;;;;;;;17.70;59.13;102384.19;5049868;28;20480;-60
2022/08/08 00:04:58;;;;;;;12.07;8.25;;;;;;;17.64;60.22;102389.34;5022382;28;20037;-60
2022/08/08 00:07:45;;;;;;;11.02;8.32;;;;;;;17.59;60.90;102389.25;5042221;28;20029;-61
2022/08/08 00:10:16;;;;;;;11.10;8.32;;;;;;;17.57;60.58;102388.34;5044299;28;20029;-60
2022/08/08 00:12:48;;;;;;;11.65;7.97;;;;;;;17.48;60.90;102389.06;5047133;28;20579;-60
2022/08/08 00:15:37;;;;;;;10.13;7.82;;;;;;;17.46;60.33;102393.38;5045404;28;20029;-60
2022/08/08 00:18:07;;;;;;;;;;;;;;;17.53;58.84;102397.06;5046894;28;20033;-60
2022/08/08 00:20:45;;;;;;;11.57;7.45;;;;;;;17.35;61.03;102395.81;5046958;28;19918;-61
2022/08/08 00:23:17;;;;;;;11.18;7.55;;;;;;;17.28;60.95;102385.09;5047600;28;20389;-60
2022/08/08 00:25:48;;;;;;;11.60;7.60;;;;;;;17.23;61.31;102399.94;5049389;28;20112;-60
2022/08/08 00:28:17;;;;;;;11.57;8.32;;;;;;;17.17;61.56;102393.69;5044143;28;20484;-61
2022/08/08 00:30:50;;;;;;;12.90;7.80;;;;;;;17.15;61.34;102392.78;5043935;28;20489;-60
2022/08/08 00:33:18;;;;;;;10.18;8.18;;;;;;;17.10;61.99;102396.16;5039365;28;20025;-61
2022/08/08 00:36:07;;;;;;;14.52;8.98;;;;;;;17.06;61.73;102395.22;5050431;28;20084;-61
2022/08/08 00:39:03;;;;;;;12.75;9.27;;;;;;;17.06;61.48;102396.94;5025892;28;20095;-61
2022/08/08 00:41:43;;;;;;;11.98;8.85;;;;;;;17.03;61.90;102403.94;5045809;28;20041;-61
2022/08/08 00:44:18;;;;;;;13.48;9.48;;;;;;;17.00;62.17;102400.31;5042580;28;20526;-60
2022/08/08 00:47:02;;;;;;;14.07;9.82;;;;;;;16.98;62.98;102402.94;5046545;28;20056;-61
2022/08/08 00:49:45;;;;;;;13.88;9.65;;;;;;;16.94;63.50;102394.94;5049717;28;20029;-60
2022/08/08 00:52:36;;;;;;;15.15;10.05;;;;;;;16.95;63.21;102392.34;5043542;28;20065;-60
2022/08/08 00:55:37;;;;;;;13.82;9.43;;;;;;;16.97;61.74;102385.34;5039207;28;20087;-60
2022/08/08 00:58:31;;;;;;;13.98;10.23;;;;;;;16.94;62.32;102380.00;5008703;28;20535;-60
2022/08/08 01:01:03;;;;;;;15.20;10.10;;;;;;;16.89;63.50;102384.31;5029968;28;20488;-60
2022/08/08 01:04:07;;;;;;;14.18;9.88;;;;;;;16.88;63.04;102393.06;5047431;28;20029;-60
2022/08/08 01:06:47;;;;;;;15.05;9.95;;;;;;;16.86;63.34;102382.47;5049177;28;20055;-60
2022/08/08 01:09:23;;;;;;;13.55;10.35;;;;;;;16.81;63.77;102384.09;5047945;28;20033;-60
2022/08/08 01:12:10;;;;;;;14.27;10.75;;;;;;;16.79;63.37;102384.94;5044879;28;20026;-61
2022/08/08 01:14:56;;;;;;;13.98;10.32;;;;;;;16.77;63.24;102381.34;5044953;28;20032;-60
2022/08/08 01:17:39;;;;;;;14.88;9.98;;;;;;;16.71;62.88;102383.84;5048404;28;20052;-57
2022/08/08 01:20:13;;;;;;;14.63;9.75;;;;;;;16.65;63.29;102382.84;5045884;28;20064;-56
2022/08/08 01:22:56;;;;;;;13.60;10.02;;;;;;;16.62;63.66;102384.53;5041645;28;20039;-56
2022/08/08 01:25:58;;;;;;;16.48;9.65;;;;;;;16.61;62.64;102381.03;5045598;28;20139;-56
2022/08/08 01:29:00;;;;;;;13.27;10.05;;;;;;;16.56;63.71;102376.50;5045506;28;20068;-56
2022/08/08 01:31:52;;;;;;;14.50;10.35;;;;;;;16.49;63.88;102373.69;5035185;28;20375;-56
2022/08/08 01:34:36;;;;;;;15.55;10.63;;;;;;;16.46;64.16;102373.63;5037464;28;20033;-56
2022/08/08 01:37:13;;;;;;;15.35;10.52;;;;;;;16.43;64.72;102373.56;5048423;28;20035;-56
2022/08/08 01:39:56;;;;;;;18.17;10.93;;;;;;;16.39;65.31;102371.72;5047944;28;20057;-56
2022/08/08 01:42:33;;;;;;;14.13;10.88;;;;;;;16.36;65.23;102374.28;5046328;28;20021;-56
2022/08/08 01:45:20;;;;;;;14.40;10.52;;;;;;;16.34;64.22;102375.97;5047220;28;20025;-56
2022/08/08 01:47:55;;;;;;;15.20;10.70;;;;;;;16.29;64.39;102372.34;5045215;28;20017;-60
2022/08/08 01:50:42;;;;;;;14.95;9.95;;;;;;;16.26;64.50;102364.38;5046298;28;20108;-60
2022/08/08 01:53:31;;;;;;;14.25;10.30;;;;;;;16.20;64.34;102366.88;5038944;28;20454;-60
2022/08/08 01:56:14;;;;;;;13.55;9.60;;;;;;;16.16;64.15;102376.41;5049116;28;20215;-60
2022/08/08 01:58:52;;;;;;;12.43;9.38;;;;;;;16.08;64.03;102386.75;5046154;28;20041;-60
2022/08/08 02:01:28;;;;;;;13.88;8.65;;;;;;;16.05;64.52;102383.13;5045528;28;20025;-60
2022/08/08 02:04:36;;;;;;;13.00;8.75;;;;;;;16.01;64.32;102390.06;5030136;28;20036;-60
2022/08/08 02:07:12;;;;;;;13.32;8.80;;;;;;;15.94;64.25;102385.50;5044250;28;20533;-60
2022/08/08 02:09:50;;;;;;;12.07;8.73;;;;;;;15.88;64.76;102380.97;5048465;28;20029;-59
2022/08/08 02:12:24;;;;;;;13.85;8.85;;;;;;;15.87;64.36;102383.53;5037616;28;20032;-60
2022/08/08 02:15:08;;;;;;;13.98;9.43;;;;;;;15.82;64.95;102376.41;5037342;28;20034;-59
2022/08/08 02:17:52;;;;;;;14.48;9.75;;;;;;;15.80;64.76;102382.47;5043911;28;20327;-60
2022/08/08 02:20:28;;;;;;;13.60;9.60;;;;;;;15.75;65.53;102382.34;5046760;28;20032;-60
2022/08/08 02:23:30;;;;;;;14.95;10.50;;;;;;;15.76;65.28;102384.13;5047833;28;20021;-60
2022/08/08 02:26:11;;;;;;;16.42;10.50;;;;;;;15.73;65.64;102384.03;5044707;28;20021;-60
2022/08/08 02:28:57;;;;;;;15.70;10.55;;;;;;;15.71;66.40;102383.09;5047965;28;20099;-60
2022/08/08 02:31:59;;;;;;;15.18;10.52;;;;;;;15.72;65.28;102381.38;5052592;28;20028;-60
2022/08/08 02:34:27;;;;;;;16.75;11.38;;;;;;;15.69;66.46;102387.44;5046412;28;20106;-61
2022/08/08 02:37:13;;;;;;;16.02;11.27;;;;;;;15.67;66.77;102378.63;5050753;28;20021;-61
2022/08/08 02:39:57;;;;;;;16.05;11.40;;;;;;;15.64;66.58;102379.44;5033858;28;20053;-62
2022/08/08 02:42:52;;;;;;;18.30;12.27;;;;;;;15.61;66.89;102383.69;5046853;28;20564;-61
2022/08/08 02:45:35;;;;;;;17.02;12.38;;;;;;;15.59;67.43;102382.78;5050596;28;20033;-61
2022/08/08 02:48:26;;;;;;;16.75;11.80;;;;;;;15.57;67.24;102377.47;5033999;28;20143;-61
2022/08/08 02:51:01;;;;;;;18.58;12.23;;;;;;;15.55;67.43;102378.28;5039959;28;20113;-60
2022/08/08 02:53:48;;;;;;;15.13;11.30;;;;;;;15.53;66.54;102378.22;5044770;28;20041;-60
2022/08/08 02:56:40;;;;;;;15.05;11.10;;;;;;;15.52;66.17;102381.69;5051651;28;20484;-60
2022/08/08 02:59:22;;;;;;;15.20;11.57;;;;;;;15.48;67.15;102375.47;5042997;28;20033;-60
2022/08/08 03:02:12;;;;;;;14.98;11.38;;;;;;;15.43;66.73;102384.97;5050612;28;20033;-60
2022/08/08 03:05:08;;;;;;;17.48;10.82;;;;;;;15.39;66.22;102388.34;5044743;28;20086;-61
2022/08/08 03:07:39;;;;;;;14.80;10.60;;;;;;;15.36;66.06;102390.88;5049492;28;20037;-61
2022/08/08 03:10:23;;;;;;;15.65;11.43;;;;;;;15.32;65.92;102382.88;5052625;28;20050;-61
2022/08/08 03:13:03;;;;;;;14.93;10.70;;;;;;;15.26;66.27;102378.34;5047083;28;20033;-61
2022/08/08 03:15:52;;;;;;;15.00;10.65;;;;;;;15.23;66.73;102380.88;5050215;28;20520;-60
2022/08/08 03:18:29;;;;;;;15.38;10.90;;;;;;;15.23;66.46;102388.75;5048511;28;20030;-61
2022/08/08 03:20:54;;;;;;;15.90;10.93;;;;;;;15.18;66.51;102390.34;5031464;28;20056;-61
2022/08/08 03:23:21;;;;;;;16.13;10.87;;;;;;;15.15;66.57;102388.53;5051321;28;20480;-61
2022/08/08 03:25:48;;;;;;;18.08;11.43;;;;;;;15.10;67.51;102393.63;5048934;28;20025;-60
2022/08/08 03:28:24;;;;;;;14.65;10.65;;;;;;;15.05;66.69;102391.75;5034470;28;20032;-60
2022/08/08 03:30:49;;;;;;;14.98;10.85;;;;;;;15.05;67.09;102402.25;5046396;28;20056;-60
2022/08/08 03:33:17;;;;;;;15.80;11.02;;;;;;;15.00;67.53;102398.56;5041931;28;20170;-60
2022/08/08 03:35:46;;;;;;;15.65;10.75;;;;;;;14.95;67.42;102395.81;5049076;28;20029;-60
2022/08/08 03:38:11;;;;;;;16.27;10.88;;;;;;;14.88;66.92;102405.22;5046387;28;20760;-60
2022/08/08 03:40:36;;;;;;;15.30;11.10;;;;;;;14.87;67.26;102405.19;5047743;28;20044;-60
2022/08/08 03:43:03;;;;;;;15.70;11.45;;;;;;;14.84;67.41;102400.72;5049343;28;20552;-60
2022/08/08 03:45:29;;;;;;;16.58;11.57;;;;;;;14.82;66.70;102406.78;5028215;28;20020;-60
2022/08/08 03:47:55;;;;;;;15.20;10.80;;;;;;;14.77;66.98;102402.28;5048739;28;20039;-60
2022/08/08 03:50:21;;;;;;;16.33;10.65;;;;;;;14.77;67.04;102404.91;5050111;28;20539;-61
2022/08/08 03:52:46;;;;;;;18.75;12.10;;;;;;;14.74;67.97;102404.81;5047011;28;20033;-61
2022/08/08 03:55:14;;;;;;;18.95;12.73;;;;;;;14.74;68.18;102409.16;5045456;28;20032;-60
2022/08/08 03:57:45;;;;;;;16.25;12.23;;;;;;;14.71;68.79;102409.94;5048230;28;20116;-60
2022/08/08 04:00:14;;;;;;;18.65;12.98;;;;;;;14.69;69.36;102408.13;5050852;28;20373;-60
2022/08/08 04:02:39;;;;;;;19.42;13.05;;;;;;;14.68;69.82;102409.84;5046279;28;20021;-60
2022/08/08 04:05:05;;;;;;;19.98;13.30;;;;;;;14.70;69.50;102410.81;5049296;28;20392;-61
2022/08/08 04:07:35;;;;;;;18.73;12.68;;;;;;;14.68;69.82;102420.34;5048906;28;20153;-60
2022/08/08 04:10:00;;;;;;;19.88;14.02;;;;;;;14.68;70.32;102417.72;5047652;28;20443;-61
2022/08/08 04:12:26;;;;;;;19.60;13.88;;;;;;;14.68;70.02;102420.34;5047919;28;20029;-61
2022/08/08 04:14:51;;;;;;;18.17;12.43;;;;;;;14.68;69.18;102419.47;5048714;28;20032;-60
2022/08/08 04:17:16;;;;;;;17.90;12.45;;;;;;;14.69;69.53;102421.25;5048915;28;20048;-60
2022/08/08 04:19:42;;;;;;;19.52;13.48;;;;;;;14.67;68.98;102426.44;5047398;28;20103;-60
2022/08/08 04:22:07;;;;;;;17.63;12.30;;;;;;;14.68;68.65;102420.34;5040109;28;20029;-60
2022/08/08 04:24:32;;;;;;;20.08;13.55;;;;;;;14.68;68.82;102416.84;5046289;28;20035;-60
2022/08/08 04:26:58;;;;;;;20.90;13.40;;;;;;;14.66;69.67;102424.66;5050750;28;20404;-60
2022/08/08 04:29:23;;;;;;;21.30;13.98;;;;;;;14.65;69.60;102427.22;5030234;28;20029;-60
2022/08/08 04:31:48;;;;;;;22.63;14.38;;;;;;;14.64;70.06;102426.31;5046072;28;20043;-60
2022/08/08 04:34:14;;;;;;;22.25;14.40;;;;;;;14.63;70.19;102426.28;5037419;28;20489;-59
2022/08/08 04:36:39;;;;;;;20.33;13.77;;;;;;;14.63;69.48;102432.44;5048044;28;20017;-60
2022/08/08 04:39:04;;;;;;;19.63;12.60;;;;;;;14.60;68.47;102425.31;5043978;28;20075;-60
2022/08/08 04:41:30;;;;;;;19.83;13.10;;;;;;;14.59;68.80;102425.25;5046222;28;20264;-60
2022/08/08 04:43:55;;;;;;;19.83;14.02;;;;;;;14.58;69.65;102428.72;5045056;28;20079;-61
2022/08/08 04:46:21;;;;;;;19.67;13.48;;;;;;;14.56;70.17;102446.16;5042621;28;20036;-61
2022/08/08 04:48:46;;;;;;;20.55;14.80;;;;;;;14.54;70.83;102439.94;5050454;28;20333;-60
2022/08/08 04:51:11;;;;;;;22.15;15.02;;;;;;;14.52;71.24;102445.16;5050170;28;20098;-60
2022/08/08 04:53:37;;;;;;;18.85;12.93;;;;;;;14.54;69.29;102453.06;5048216;28;20550;-60
2022/08/08 04:56:02;;;;;;;18.63;13.07;;;;;;;14.51;69.46;102447.72;5045782;28;20032;-60
2022/08/08 04:58:28;;;;;;;20.70;13.57;;;;;;;14.50;69.93;102461.69;5047310;28;20040;-60
2022/08/08 05:00:53;;;;;;;19.65;13.00;;;;;;;14.47;70.05;102458.94;5049327;28;20032;-60
2022/08/08 05:03:19;;;;;;;19.70;13.75;;;;;;;14.42;70.19;102459.72;5045672;28;20027;-60
2022/08/08 05:05:44;;;;;;;21.23;13.80;;;;;;;14.41;70.70;102460.53;5043166;28;20496;-60
2022/08/08 05:08:12;;;;;;;20.10;14.82;;;;;;;14.40;71.21;102455.25;5050497;28;20021;-60
2022/08/08 05:10:37;;;;;;;22.95;14.82;;;;;;;14.40;71.52;102460.50;5048820;28;20037;-60
2022/08/08 05:13:03;;;;;;;23.38;15.75;;;;;;;14.39;71.37;102464.81;5044658;28;20048;-60
2022/08/08 05:15:28;;;;;;;21.80;15.00;;;;;;;14.41;71.79;102459.63;5046316;28;20421;-60
2022/08/08 05:17:53;;;;;;;21.85;15.50;;;;;;;14.38;71.64;102468.31;5046435;28;20017;-59
2022/08/08 05:20:19;;;;;;;21.10;15.35;;;;;;;14.36;71.64;102467.34;5047435;28;20086;-60
2022/08/08 05:22:44;;;;;;;22.85;16.00;;;;;;;14.37;71.77;102466.50;5049668;28;20116;-60
2022/08/08 05:25:10;;;;;;;20.85;15.00;;;;;;;14.35;71.75;102473.44;5043847;28;20026;-60
2022/08/08 05:27:35;;;;;;;24.30;15.25;;;;;;;14.35;72.37;102473.44;5048222;28;20071;-60
2022/08/08 05:30:02;;;;;;;24.05;15.82;;;;;;;14.38;73.07;102468.31;5049458;28;20056;-59
2022/08/08 05:32:27;;;;;;;22.63;15.90;;;;;;;14.38;73.84;102460.44;5038499;28;20029;-60
2022/08/08 05:34:57;;;;;;;22.45;15.57;;;;;;;14.41;73.46;102462.25;5040339;28;20104;-60
2022/08/08 05:37:24;;;;;;;23.38;15.82;;;;;;;14.43;73.71;102464.09;5047137;28;20112;-60
2022/08/08 05:39:52;;;;;;;24.52;16.40;;;;;;;14.46;74.65;102462.44;5047802;28;20435;-60
2022/08/08 05:42:21;;;;;;;24.40;16.75;;;;;;;14.50;75.47;102469.56;5041328;28;20029;-60
2022/08/08 05:44:48;;;;;;;22.77;15.80;;;;;;;14.54;75.63;102468.81;5045186;28;20021;-60
2022/08/08 05:47:15;;;;;;;25.40;16.52;;;;;;;14.57;76.40;102474.16;5046391;28;20017;-60
2022/08/08 05:49:45;;;;;;;25.48;16.25;;;;;;;14.62;76.42;102472.63;5049671;28;20021;-60
2022/08/08 05:52:11;;;;;;;25.73;16.90;;;;;;;14.65;76.90;102479.69;5029300;28;20025;-60
2022/08/08 05:54:36;;;;;;;27.05;17.63;;;;;;;14.69;77.15;102478.97;5046289;28;20043;-59
2022/08/08 05:57:03;;;;;;;25.88;17.00;;;;;;;14.71;77.63;102482.53;5021255;28;20029;-60
2022/08/08 05:59:29;;;;;;;28.35;17.20;;;;;;;14.75;76.94;102474.78;5039933;28;20028;-60
2022/08/08 06:01:55;;;;;;;28.25;17.38;;;;;;;14.80;77.42;102476.69;5022570;28;20024;-60
2022/08/08 06:04:26;;;;;;;26.00;18.08;;;;;;;14.83;77.87;102487.28;5038868;28;20044;-60
2022/08/08 06:06:57;;;;;;;37.15;20.40;;;;;;;14.88;77.92;102485.69;5036854;28;20025;-61
2022/08/08 06:09:28;;;;;;;28.75;19.67;;;;;;;14.92;77.65;102484.97;5037616;28;20033;-60
2022/08/08 06:11:59;;;;;;;31.02;20.30;;;;;;;14.96;77.53;102484.19;5047943;28;20067;-60
2022/08/08 06:14:27;;;;;;;29.13;18.13;;;;;;;15.00;77.83;102486.06;5039748;28;20037;-60
2022/08/08 06:16:55;;;;;;;28.42;18.27;;;;;;;15.04;77.45;102487.97;5047403;28;20017;-60
2022/08/08 06:19:23;;;;;;;31.97;18.90;;;;;;;15.09;77.64;102490.72;5034413;28;20499;-60
2022/08/08 06:21:49;;;;;;;29.08;18.88;;;;;;;15.14;78.29;102491.78;5036160;28;21775;-61
2022/08/08 06:24:15;;;;;;;29.75;17.73;;;;;;;15.20;78.40;102493.69;5039685;28;20056;-60
2022/08/08 06:26:49;;;;;;;32.20;19.15;;;;;;;15.23;78.15;102499.03;5035138;28;20407;-60
2022/08/08 06:29:24;;;;;;;29.25;18.15;;;;;;;15.30;77.49;102501.91;5038334;28;20103;-61
2022/08/08 06:31:54;;;;;;;31.23;18.85;;;;;;;15.37;78.42;102496.84;5021043;28;20025;-61
2022/08/08 06:34:28;;;;;;;31.15;18.63;;;;;;;15.43;77.83;102500.53;5033505;28;20024;-61
2022/08/08 06:36:56;;;;;;;33.30;18.52;;;;;;;15.50;78.35;102505.97;5043519;28;20017;-61
2022/08/08 06:39:25;;;;;;;31.13;18.23;;;;;;;15.56;77.91;102509.69;5047526;28;20021;-61
2022/08/08 06:41:54;;;;;;;30.87;18.80;;;;;;;15.63;78.23;102510.78;5027553;28;20726;-61
2022/08/08 06:44:22;;;;;;;34.20;19.42;;;;;;;15.68;78.28;102506.53;5038598;28;20483;-61
2022/08/08 06:46:48;;;;;;;34.25;18.73;;;;;;;15.77;77.30;102500.63;5021311;28;20116;-61
2022/08/08 06:49:13;;;;;;;31.10;18.33;;;;;;;15.84;76.60;102510.50;5038609;28;20028;-61
2022/08/08 06:51:39;;;;;;;31.17;17.13;;;;;;;15.92;75.91;102509.00;5037937;28;20036;-61
2022/08/08 06:54:06;;;;;;;37.58;19.45;;;;;;;16.01;76.19;102510.13;5038112;28;20484;-61
2022/08/08 06:56:32;;;;;;;33.63;17.52;;;;;;;16.05;76.18;102510.25;5047757;28;20060;-61
2022/08/08 06:58:57;;;;;;;32.30;17.20;;;;;;;16.12;75.78;102512.19;5038624;28;20511;-61
2022/08/08 07:01:29;;;;;;;34.33;18.15;;;;;;;16.20;75.85;102508.88;5048404;28;20492;-61
2022/08/08 07:04:02;;;;;;;35.05;18.67;;;;;;;16.25;75.67;102508.16;5043236;28;20524;-61
2022/08/08 07:06:31;;;;;;;40.15;21.58;;;;;;;16.31;75.65;102513.56;5037939;28;20381;-61
2022/08/08 07:09:08;;;;;;;43.05;21.80;;;;;;;16.40;75.83;102514.69;5051041;28;20025;-61
2022/08/08 07:11:40;;;;;;;42.33;22.42;;;;;;;16.49;75.38;102520.16;5034573;28;20116;-61
2022/08/08 07:14:07;;;;;;;45.00;22.65;;;;;;;16.57;74.69;102515.09;5049218;28;20029;-61
2022/08/08 07:17:00;;;;;;;50.33;23.42;;;;;;;16.64;73.69;102514.41;5051538;28;20543;-61
2022/08/08 07:19:46;;;;;;;46.03;23.08;;;;;;;16.73;74.44;102519.91;5052531;28;20029;-61
2022/08/08 07:22:14;;;;;;;48.30;22.67;;;;;;;16.80;74.12;102521.84;5048253;28;20032;-61
2022/08/08 07:24:57;;;;;;;44.42;22.33;;;;;;;16.88;74.65;102527.34;5051236;28;20507;-61
2022/08/08 07:27:24;;;;;;;43.90;20.48;;;;;;;16.95;74.17;102534.53;5052474;28;20078;-61
2022/08/08 07:29:50;;;;;;;43.08;18.77;;;;;;;17.03;73.18;102532.06;5052377;28;20025;-62
2022/08/08 07:32:17;;;;;;;38.38;17.85;;;;;;;17.11;73.68;102529.63;5050977;28;20032;-61
2022/08/08 07:34:44;;;;;;;40.53;18.60;;;;;;;17.19;73.14;102528.97;5052099;28;20543;-61
2022/08/08 07:37:11;;;;;;;41.67;17.63;;;;;;;17.26;72.86;102532.59;5047855;28;20044;-61
2022/08/08 07:39:40;;;;;;;34.72;16.48;;;;;;;17.33;72.90;102533.66;5050143;28;20041;-61
2022/08/08 07:42:12;;;;;;;38.90;17.05;;;;;;;17.41;72.83;102531.19;5051342;28;20033;-61
2022/08/08 07:44:40;;;;;;;36.55;15.25;;;;;;;17.46;72.08;102530.44;5052239;28;20036;-61
2022/08/08 07:47:05;;;;;;;31.63;14.97;;;;;;;17.54;72.82;102528.84;5052193;28;20029;-61
2022/08/08 07:49:31;;;;;;;28.60;13.75;;;;;;;17.62;72.14;102534.28;5051854;28;20033;-61
2022/08/08 07:51:58;;;;;;;28.15;12.55;;;;;;;17.70;71.07;102526.56;5047058;28;20083;-61
2022/08/08 07:54:54;;;;;;;22.15;11.32;;;;;;;17.80;71.44;102533.81;5050184;28;20033;-61
2022/08/08 07:57:37;;;;;;;22.60;11.68;;;;;;;17.88;70.90;102526.03;5040472;28;20112;-61
2022/08/08 08:00:14;;;;;;;20.23;11.00;;;;;;;17.96;71.49;102537.69;5035011;28;20511;-61
2022/08/08 08:03:09;;;;;;;21.52;11.23;;;;;;;18.02;70.57;102529.00;5046196;28;20082;-62
2022/08/08 08:05:43;;;;;;;19.67;9.82;;;;;;;18.10;71.35;102542.34;5046983;28;20025;-62
2022/08/08 08:08:19;;;;;;;17.17;10.00;;;;;;;18.18;70.73;102538.97;5044313;28;20043;-63
2022/08/08 08:10:48;;;;;;;18.95;9.45;;;;;;;18.27;70.74;102543.53;5050831;28;20075;-61
2022/08/08 08:13:22;;;;;;;;;;;;;;;18.34;70.25;102537.53;5050933;28;20604;-62
2022/08/08 08:16:20;;;;;;;15.88;7.45;;;;;;;18.41;69.77;102534.13;5051500;28;19984;-63
2022/08/08 08:18:52;;;;;;;14.02;6.65;;;;;;;18.52;69.61;102546.63;5050961;28;20055;-62
2022/08/08 08:21:19;;;;;;;11.63;6.65;;;;;;;18.58;69.58;102546.72;5051350;28;20464;-60
2022/08/08 08:23:44;;;;;;;10.82;5.70;;;;;;;18.65;68.69;102542.47;5045540;28;20031;-60
2022/08/08 08:26:12;;;;;;;9.40;5.32;;;;;;;18.75;68.20;102544.38;5028227;28;20104;-60
2022/08/08 08:28:38;;;;;;;9.18;5.03;;;;;;;18.81;67.12;102544.50;5042494;28;20025;-61
2022/08/08 08:31:04;;;;;;;8.10;4.65;;;;;;;18.87;67.19;102554.31;5043879;28;20032;-60
2022/08/08 08:33:31;;;;;;;9.30;4.90;;;;;;;18.93;66.56;102555.31;5041925;28;20043;-60
2022/08/08 08:35:57;;;;;;;11.13;5.00;;;;;;;19.00;66.30;102560.69;5043371;28;20024;-61
2022/08/08 08:38:22;;;;;;;10.38;4.90;;;;;;;19.13;66.94;102552.06;5041587;28;20028;-61
2022/08/08 08:40:49;;;;;;;9.32;4.45;;;;;;;19.19;66.11;102554.84;5040261;28;20123;-60
2022/08/08 08:43:16;;;;;;;7.43;4.10;;;;;;;19.26;65.81;102564.63;5047801;28;20036;-63
2022/08/08 08:45:42;;;;;;;10.27;4.60;;;;;;;19.37;65.79;102566.53;5050168;28;20024;-59
2022/08/08 08:48:09;;;;;;;7.97;4.05;;;;;;;19.43;65.01;102556.06;5049704;28;20032;-60
2022/08/08 08:50:36;;;;;;;6.43;4.07;;;;;;;19.51;64.26;102566.72;5037526;28;20029;-60
2022/08/08 08:53:06;;;;;;;10.32;4.05;;;;;;;19.55;62.95;102572.09;5049716;28;20044;-60
2022/08/08 08:55:35;;;;;;;8.48;4.10;;;;;;;19.66;63.53;102563.44;5028521;28;20114;-60
2022/08/08 08:58:02;;;;;;;8.43;3.90;;;;;;;19.74;63.83;102556.47;5049631;28;20025;-60
2022/08/08 09:00:28;;;;;;;8.35;4.30;;;;;;;19.82;63.52;102564.53;5037187;28;20158;-60
2022/08/08 09:02:57;;;;;;;6.93;3.80;;;;;;;19.87;62.03;102566.38;5045574;28;20510;-60
2022/08/08 09:05:24;;;;;;;6.40;3.90;;;;;;;19.97;61.85;102560.34;5041730;28;20113;-60
2022/08/08 09:07:52;;;;;;;6.28;3.33;;;;;;;20.12;60.48;102558.72;5040409;28;20033;-61
2022/08/08 09:10:18;;;;;;;6.68;3.30;;;;;;;20.25;61.43;102559.75;5041802;28;20645;-60
2022/08/08 09:12:46;;;;;;;6.95;3.78;;;;;;;20.36;61.67;102559.88;5039211;28;20032;-60
2022/08/08 09:15:13;;;;;;;5.38;2.90;;;;;;;20.48;59.97;102555.59;5043610;28;20472;-60
2022/08/08 09:17:40;;;;;;;7.63;3.10;;;;;;;20.57;59.05;102560.06;5047206;28;20078;-60
2022/08/08 09:20:08;;;;;;;5.30;3.45;;;;;;;20.63;59.07;102552.19;5038604;28;20021;-60
2022/08/08 09:22:34;;;;;;;6.43;3.00;;;;;;;20.70;58.35;102549.63;5038446;28;20408;-60
2022/08/08 09:25:00;;;;;;;4.70;3.03;;;;;;;20.80;58.27;102555.03;5041280;28;20036;-60
2022/08/08 09:27:26;;;;;;;5.55;3.08;;;;;;;20.91;60.22;102559.53;5024529;28;20021;-59
2022/08/08 09:29:58;;;;;;;4.35;3.15;;;;;;;21.02;59.67;102556.06;5037864;28;20026;-59
2022/08/08 09:32:36;;;;;;;5.95;3.38;;;;;;;21.09;58.66;102556.13;5042293;28;20472;-60
2022/08/08 09:35:04;;;;;;;5.00;2.90;;;;;;;21.17;58.23;102562.34;5044078;28;20036;-60
2022/08/08 09:37:41;;;;;;;5.93;3.25;;;;;;;21.26;57.95;102557.13;5046601;28;20377;-59
2022/08/08 09:40:08;;;;;;;6.70;3.40;;;;;;;21.36;58.17;102556.31;5047892;28;20105;-60
2022/08/08 09:42:36;;;;;;;5.82;3.00;;;;;;;21.51;57.64;102559.97;5049664;28;20301;-58
2022/08/08 09:45:06;;;;;;;5.78;2.97;;;;;;;21.65;57.90;102558.28;5048850;28;20029;-59
2022/08/08 09:47:37;;;;;;;5.32;2.78;;;;;;;21.73;58.01;102557.44;5049844;28;20111;-59
2022/08/08 09:50:09;;;;;;;6.20;3.20;;;;;;;21.90;57.97;102553.06;5048513;28;20056;-58
2022/08/08 09:52:35;;;;;;;4.88;2.88;;;;;;;21.99;58.58;102550.44;5049615;28;20469;-58
2022/08/08 09:55:02;;;;;;;6.32;2.95;;;;;;;22.12;57.42;102553.16;5049947;28;20083;-59
2022/08/08 09:57:35;;;;;;;3.70;2.60;;;;;;;22.20;56.31;102551.38;5049683;28;20166;-59
2022/08/08 10:00:02;;;;;;;4.38;2.60;;;;;;;22.23;55.28;102552.28;5048399;28;20403;-59
2022/08/08 10:02:36;;;;;;;4.63;2.60;;;;;;;22.29;56.24;102555.81;5049600;28;20610;-59
2022/08/08 10:05:07;;;;;;;4.72;2.75;;;;;;;22.37;55.81;102554.09;5048720;28;20033;-59
2022/08/08 10:07:34;;;;;;;5.95;2.67;;;;;;;22.52;55.03;102553.22;5049710;28;20029;-59
2022/08/08 10:09:59;;;;;;;5.43;2.60;;;;;;;22.60;55.50;102559.44;5049629;28;20060;-59
2022/08/08 10:12:33;;;;;;;5.68;2.88;;;;;;;22.60;54.14;102562.09;5047341;28;20061;-60
2022/08/08 10:15:00;;;;;;;4.15;2.60;;;;;;;22.58;53.72;102554.13;5049577;28;20562;-59
2022/08/08 10:17:25;;;;;;;5.90;2.85;;;;;;;22.54;52.89;102555.00;5049493;28;20029;-59
2022/08/08 10:19:56;;;;;;;4.32;2.55;;;;;;;22.50;53.42;102553.22;5048256;28;20120;-59
2022/08/08 10:22:23;;;;;;;3.95;1.88;;;;;;;22.56;54.40;102552.34;5048538;28;20513;-59
2022/08/08 10:24:53;;;;;;;3.67;1.70;;;;;;;22.71;53.16;102549.72;5043172;28;20057;-60
2022/08/08 10:27:25;;;;;;;4.05;1.63;;;;;;;22.79;51.49;102556.81;5045043;28;20115;-59
2022/08/08 10:30:01;;;;;;;6.45;2.33;;;;;;;22.79;52.00;102557.69;5049582;28;20115;-60
2022/08/08 10:32:42;;;;;;;5.93;2.88;;;;;;;22.73;52.00;102550.59;5048229;28;20399;-60
2022/08/08 10:35:15;;;;;;;3.35;2.30;;;;;;;22.86;54.58;102554.13;5048657;28;20043;-59
2022/08/08 10:37:53;;;;;;;4.72;2.67;;;;;;;22.93;53.55;102552.38;5049586;28;20100;-59
2022/08/08 10:40:19;;;;;;;4.28;2.30;;;;;;;23.01;51.36;102550.56;5049092;28;20310;-59
2022/08/08 10:42:48;;;;;;;2.90;2.08;;;;;;;23.16;54.35;102548.81;5050569;28;20031;-59
2022/08/08 10:45:13;;;;;;;3.75;2.05;;;;;;;23.26;51.73;102551.47;5051560;28;20434;-59
2022/08/08 10:47:41;;;;;;;3.55;1.92;;;;;;;23.34;51.35;102543.47;5052510;28;20033;-60
2022/08/08 10:50:08;;;;;;;7.40;2.50;;;;;;;23.48;51.63;102547.84;5053117;28;20495;-60
2022/08/08 10:52:36;;;;;;;4.45;2.03;;;;;;;23.54;49.72;102543.41;5053241;28;20380;-60
2022/08/08 10:55:09;;;;;;;2.75;1.75;;;;;;;23.61;50.52;102541.63;5048561;28;20036;-60
2022/08/08 10:57:43;;;;;;;3.53;1.80;;;;;;;23.69;49.78;102544.22;5047473;28;20033;-60
2022/08/08 11:00:11;;;;;;;3.97;1.90;;;;;;;23.75;50.06;102547.78;5051716;28;20024;-60
2022/08/08 11:02:37;;;;;;;4.00;2.05;;;;;;;23.78;49.24;102553.06;5030189;28;20438;-60
2022/08/08 11:05:08;;;;;;;3.22;1.90;;;;;;;23.85;50.29;102550.38;5052897;28;20028;-60
2022/08/08 11:07:36;;;;;;;5.03;2.15;;;;;;;23.85;49.13;102547.72;5040914;28;20488;-60
2022/08/08 11:10:05;;;;;;;4.40;2.30;;;;;;;23.85;48.92;102547.72;5052802;28;20060;-60
2022/08/08 11:12:32;;;;;;;3.33;1.90;;;;;;;23.79;48.67;102544.19;5051661;28;20035;-60
2022/08/08 11:14:59;;;;;;;2.90;1.98;;;;;;;23.78;49.20;102542.44;5050195;28;20033;-60
2022/08/08 11:17:30;;;;;;;4.32;2.20;;;;;;;23.88;51.04;102534.41;5041225;28;20029;-60
2022/08/08 11:19:57;;;;;;;3.33;1.95;;;;;;;23.93;49.28;102537.97;5052536;28;20051;-59
2022/08/08 11:22:26;;;;;;;3.88;1.95;;;;;;;24.05;49.34;102537.00;5052709;28;20017;-59
2022/08/08 11:24:58;;;;;;;;;;;;;;;24.19;50.67;102531.56;5051653;28;20025;-59
2022/08/08 11:27:28;;;;;;;3.80;1.80;;;;;;;24.27;47.67;102524.41;5043398;28;19963;-59
2022/08/08 11:29:56;;;;;;;3.35;1.85;;;;;;;24.31;48.08;102513.72;5051359;28;20108;-59
2022/08/08 11:32:29;;;;;;;3.25;1.85;;;;;;;24.38;45.78;102511.91;5052183;28;20063;-59
2022/08/08 11:35:16;;;;;;;3.25;1.98;;;;;;;24.45;48.28;102518.97;5052311;28;20539;-59
2022/08/08 11:37:42;;;;;;;3.17;1.90;;;;;;;24.45;46.57;102518.97;5044291;28;20044;-59
2022/08/08 11:40:10;;;;;;;3.65;1.88;;;;;;;24.40;47.81;102518.09;5050183;28;20044;-59
2022/08/08 11:42:37;;;;;;;4.68;1.98;;;;;;;24.41;47.12;102519.88;5051208;28;20051;-59